sensor_id;sensor_type;location;lat;lon;timestamp;pressure;altitude;pressure_sealevel;temperature;humidity
5988;BME280;3021;51.000;6.980;2023-05-03T00:01:37;67016.00;;;6.40;100.00
5988;BME280;3021;51.000;6.980;2023-05-03T00:04:03;67005.66;;;6.31;100.00
5988;BME280;3021;51.000;6.980;2023-05-03T00:06:28;66999.63;;;6.30;100.00
5988;BME280;3021;51.000;6.980;2023-05-03T00:08:54;66996.59;;;6.25;100.00
5988;BME280;3021;51.000;6.980;2023-05-03T00:11:19;66993.16;;;6.22;100.00
5988;BME280;3021;51.000;6.980;2023-05-03T00:13:45;66986.97;;;6.19;100.00
5988;BME280;3021;51.000;6.980;2023-05-03T00:16:10;66997.16;;;6.26;100.00
5988;BME280;3021;51.000;6.980;2023-05-03T00:18:36;66997.03;;;6.23;100.00
5988;BME280;3021;51.000;6.980;2023-05-03T00:21:01;66994.72;;;6.21;100.00
5988;BME280;3021;51.000;6.980;2023-05-03T00:23:27;66985.34;;;6.10;100.00
5988;BME280;3021;51.000;6.980;2023-05-03T00:25:53;66971.84;;;6.03;100.00
5988;BME280;3021;51.000;6.980;2023-05-03T00:28:19;66969.53;;;6.01;100.00
5988;BME280;3021;51.000;6.980;2023-05-03T00:30:44;66961.88;;;5.92;100.00
5988;BME280;3021;51.000;6.980;2023-05-03T00:33:10;66954.41;;;5.85;100.00
5988;BME280;3021;51.000;6.980;2023-05-03T00:35:35;66960.88;;;5.93;100.00
5988;BME280;3021;51.000;6.980;2023-05-03T00:38:00;66972.59;;;6.06;100.00
5988;BME280;3021;51.000;6.980;2023-05-03T00:40:26;66969.53;;;6.01;100.00
5988;BME280;3021;51.000;6.980;2023-05-03T00:42:51;66965.91;;;5.95;100.00
5988;BME280;3021;51.000;6.980;2023-05-03T00:45:17;66958.56;;;5.91;100.00
5988;BME280;3021;51.000;6.980;2023-05-03T00:47:42;66953.97;;;5.87;100.00
5988;BME280;3021;51.000;6.980;2023-05-03T00:50:08;66960.88;;;5.93;100.00
5988;BME280;3021;51.000;6.980;2023-05-03T00:52:35;66949.22;;;5.80;100.00
5988;BME280;3021;51.000;6.980;2023-05-03T00:55:01;66935.72;;;5.73;100.00
5988;BME280;3021;51.000;6.980;2023-05-03T00:57:28;66936.88;;;5.74;100.00
5988;BME280;3021;51.000;6.980;2023-05-03T00:59:55;66936.41;;;5.66;100.00
5988;BME280;3021;51.000;6.980;2023-05-03T01:02:20;66922.31;;;5.59;100.00
5988;BME280;3021;51.000;6.980;2023-05-03T01:04:46;66910.66;;;5.46;100.00
5988;BME280;3021;51.000;6.980;2023-05-03T01:10:01;66906.81;;;5.45;100.00
5988;BME280;3021;51.000;6.980;2023-05-03T01:18:13;66879.16;;;5.20;100.00
5988;BME280;3021;51.000;6.980;2023-05-03T01:20:43;66868.84;;;5.11;100.00
5988;BME280;3021;51.000;6.980;2023-05-03T01:28:45;66865.78;;;5.06;100.00
5988;BME280;3021;51.000;6.980;2023-05-03T01:31:13;66860.22;;;5.03;100.00
5988;BME280;3021;51.000;6.980;2023-05-03T01:33:45;66856.19;;;4.99;100.00
5988;BME280;3021;51.000;6.980;2023-05-03T01:36:20;66854.28;;;4.95;100.00
5988;BME280;3021;51.000;6.980;2023-05-03T01:38:48;66849.13;;;4.91;100.00
5988;BME280;3021;51.000;6.980;2023-05-03T01:41:15;66853.13;;;4.94;100.00
5988;BME280;3021;51.000;6.980;2023-05-03T01:43:42;66840.06;;;4.85;100.00
5988;BME280;3021;51.000;6.980;2023-05-03T01:46:08;66831.47;;;4.77;100.00
5988;BME280;3021;51.000;6.980;2023-05-03T01:48:33;66830.88;;;4.77;100.00
5988;BME280;3021;51.000;6.980;2023-05-03T01:50:59;66832.44;;;4.76;100.00
5988;BME280;3021;51.000;6.980;2023-05-03T01:53:24;66827.84;;;4.72;100.00
5988;BME280;3021;51.000;6.980;2023-05-03T01:55:49;66822.25;;;4.69;100.00
5988;BME280;3021;51.000;6.980;2023-05-03T01:58:15;66819.38;;;4.66;100.00
5988;BME280;3021;51.000;6.980;2023-05-03T02:00:40;66822.09;;;4.66;100.00
5988;BME280;3021;51.000;6.980;2023-05-03T02:03:05;66819.22;;;4.64;100.00
5988;BME280;3021;51.000;6.980;2023-05-03T02:05:31;66819.38;;;4.66;100.00
5988;BME280;3021;51.000;6.980;2023-05-03T02:07:56;66823.41;;;4.70;100.00
5988;BME280;3021;51.000;6.980;2023-05-03T02:10:21;66831.13;;;4.72;100.00
5988;BME280;3021;51.000;6.980;2023-05-03T02:12:47;66831.47;;;4.77;100.00
5988;BME280;3021;51.000;6.980;2023-05-03T02:15:12;66829.56;;;4.73;100.00
5988;BME280;3021;51.000;6.980;2023-05-03T02:17:38;66831.47;;;4.77;100.00
5988;BME280;3021;51.000;6.980;2023-05-03T02:20:04;66830.88;;;4.77;100.00
5988;BME280;3021;51.000;6.980;2023-05-03T02:22:31;66819.38;;;4.66;100.00
5988;BME280;3021;51.000;6.980;2023-05-03T02:24:57;66810.75;;;4.59;100.00
5988;BME280;3021;51.000;6.980;2023-05-03T02:27:22;66810.28;;;4.51;100.00
5988;BME280;3021;51.000;6.980;2023-05-03T02:29:48;66797.53;;;4.47;100.00
5988;BME280;3021;51.000;6.980;2023-05-03T02:32:14;66795.81;;;4.45;100.00
5988;BME280;3021;51.000;6.980;2023-05-03T02:34:39;66792.34;;;4.42;100.00
5988;BME280;3021;51.000;6.980;2023-05-03T02:37:05;66792.19;;;4.40;100.00
5988;BME280;3021;51.000;6.980;2023-05-03T02:39:31;66791.63;;;4.39;100.00
5988;BME280;3021;51.000;6.980;2023-05-03T02:41:56;66785.31;;;4.33;100.00
5988;BME280;3021;51.000;6.980;2023-05-03T02:44:21;66782.25;;;4.28;100.00
5988;BME280;3021;51.000;6.980;2023-05-03T02:46:47;66775.28;;;4.29;100.00
5988;BME280;3021;51.000;6.980;2023-05-03T02:49:12;66773.41;;;4.25;100.00
5988;BME280;3021;51.000;6.980;2023-05-03T02:51:37;66769.38;;;4.22;100.00
5988;BME280;3021;51.000;6.980;2023-05-03T02:54:03;66768.63;;;4.19;100.00
5988;BME280;3021;51.000;6.980;2023-05-03T02:56:28;66763.06;;;4.16;100.00
5988;BME280;3021;51.000;6.980;2023-05-03T02:58:54;66760.59;;;4.11;100.00
5988;BME280;3021;51.000;6.980;2023-05-03T03:01:20;66757.88;;;4.11;100.00
5988;BME280;3021;51.000;6.980;2023-05-03T03:03:46;66757.72;;;4.09;100.00
5988;BME280;3021;51.000;6.980;2023-05-03T03:06:11;66760.59;;;4.11;100.00
5988;BME280;3021;51.000;6.980;2023-05-03T03:08:37;66760.00;;;4.11;100.00
5988;BME280;3021;51.000;6.980;2023-05-03T03:11:03;66755.41;;;4.07;100.00
5988;BME280;3021;51.000;6.980;2023-05-03T03:13:29;66753.13;;;4.05;100.00
5988;BME280;3021;51.000;6.980;2023-05-03T03:15:54;66751.41;;;4.03;100.00
5988;BME280;3021;51.000;6.980;2023-05-03T03:18:20;66747.94;;;4.00;100.00
5988;BME280;3021;51.000;6.980;2023-05-03T03:20:45;66745.66;;;3.98;100.00
5988;BME280;3021;51.000;6.980;2023-05-03T03:23:10;66742.78;;;3.95;100.00
5988;BME280;3021;51.000;6.980;2023-05-03T03:25:36;66743.94;;;3.96;100.00
5988;BME280;3021;51.000;6.980;2023-05-03T03:28:01;66745.09;;;3.97;100.00
5988;BME280;3021;51.000;6.980;2023-05-03T03:30:27;66741.66;;;3.94;100.00
5988;BME280;3021;51.000;6.980;2023-05-03T03:32:52;66743.19;;;3.93;100.00
5988;BME280;3021;51.000;6.980;2023-05-03T03:35:18;66737.03;;;3.90;100.00
5988;BME280;3021;51.000;6.980;2023-05-03T03:37:43;66729.91;;;3.89;100.00
5988;BME280;3021;51.000;6.980;2023-05-03T03:40:09;66726.84;;;3.84;100.00
5988;BME280;3021;51.000;6.980;2023-05-03T03:42:37;66726.69;;;3.81;100.00
5988;BME280;3021;51.000;6.980;2023-05-03T03:45:03;66725.69;;;3.83;100.00
5988;BME280;3021;51.000;6.980;2023-05-03T03:47:28;66722.41;;;3.82;100.00
5988;BME280;3021;51.000;6.980;2023-05-03T03:49:54;66724.41;;;3.79;100.00
5988;BME280;3021;51.000;6.980;2023-05-03T03:52:19;66720.53;;;3.78;100.00
5988;BME280;3021;51.000;6.980;2023-05-03T03:54:44;66722.09;;;3.77;100.00
5988;BME280;3021;51.000;6.980;2023-05-03T03:57:10;66726.69;;;3.81;100.00
5988;BME280;3021;51.000;6.980;2023-05-03T03:59:35;66724.56;;;3.82;100.00
5988;BME280;3021;51.000;6.980;2023-05-03T04:02:00;66725.69;;;3.83;100.00
5988;BME280;3021;51.000;6.980;2023-05-03T04:04:25;66729.72;;;3.86;100.00
5988;BME280;3021;51.000;6.980;2023-05-03T04:06:51;66736.47;;;3.90;100.00
5988;BME280;3021;51.000;6.980;2023-05-03T04:09:16;66740.50;;;3.93;100.00
5988;BME280;3021;51.000;6.980;2023-05-03T04:11:41;66735.88;;;3.89;100.00
5988;BME280;3021;51.000;6.980;2023-05-03T04:14:07;66736.63;;;3.92;100.00
5988;BME280;3021;51.000;6.980;2023-05-03T04:16:32;66743.78;;;3.94;100.00
5988;BME280;3021;51.000;6.980;2023-05-03T04:18:57;66744.34;;;3.94;100.00
5988;BME280;3021;51.000;6.980;2023-05-03T04:21:23;66750.81;;;4.03;100.00
5988;BME280;3021;51.000;6.980;2023-05-03T04:23:48;66757.72;;;4.09;100.00
5988;BME280;3021;51.000;6.980;2023-05-03T04:26:13;66760.00;;;4.11;100.00
5988;BME280;3021;51.000;6.980;2023-05-03T04:28:39;66764.63;;;4.15;100.00
5988;BME280;3021;51.000;6.980;2023-05-03T04:31:04;66769.94;;;4.22;100.00
5988;BME280;3021;51.000;6.980;2023-05-03T04:33:29;66772.81;;;4.25;100.00
5988;BME280;3021;51.000;6.980;2023-05-03T04:35:55;66777.44;;;4.29;100.00
5988;BME280;3021;51.000;6.980;2023-05-03T04:38:22;66788.03;;;4.33;100.00
5988;BME280;3021;51.000;6.980;2023-05-03T04:40:47;66794.50;;;4.42;100.00
5988;BME280;3021;51.000;6.980;2023-05-03T04:43:12;66799.25;;;4.48;100.00
5988;BME280;3021;51.000;6.980;2023-05-03T04:45:39;66800.41;;;4.49;100.00
5988;BME280;3021;51.000;6.980;2023-05-03T04:48:04;66813.47;;;4.59;100.00
5988;BME280;3021;51.000;6.980;2023-05-03T04:50:31;66828.25;;;4.70;100.00
5988;BME280;3021;51.000;6.980;2023-05-03T04:52:56;66838.75;;;4.81;100.00
5988;BME280;3021;51.000;6.980;2023-05-03T04:55:21;66857.34;;;5.00;100.00
5988;BME280;3021;51.000;6.980;2023-05-03T04:57:47;66881.47;;;5.22;100.00
5988;BME280;3021;51.000;6.980;2023-05-03T05:00:12;66914.44;;;5.54;100.00
5988;BME280;3021;51.000;6.980;2023-05-03T05:02:38;66953.56;;;5.89;100.00
5988;BME280;3021;51.000;6.980;2023-05-03T05:05:03;67006.94;;;6.34;100.00
5988;BME280;3021;51.000;6.980;2023-05-03T05:07:29;67106.03;;;7.23;100.00
5988;BME280;3021;51.000;6.980;2023-05-03T05:09:54;67316.84;;;9.16;100.00
5988;BME280;3021;51.000;6.980;2023-05-03T05:12:20;67598.22;;;11.67;100.00
5988;BME280;3021;51.000;6.980;2023-05-03T05:14:45;67894.13;;;14.30;100.00
5988;BME280;3021;51.000;6.980;2023-05-03T05:17:11;68050.31;;;15.71;100.00
5988;BME280;3021;51.000;6.980;2023-05-03T05:19:36;68249.53;;;17.48;100.00
5988;BME280;3021;51.000;6.980;2023-05-03T05:22:01;68426.78;;;19.02;100.00
5988;BME280;3021;51.000;6.980;2023-05-03T05:24:27;68637.13;;;20.91;100.00
5988;BME280;3021;51.000;6.980;2023-05-03T05:26:52;68787.50;;;22.23;100.00
5988;BME280;3021;51.000;6.980;2023-05-03T05:29:18;68867.47;;;22.94;100.00
5988;BME280;3021;51.000;6.980;2023-05-03T05:31:43;68930.50;;;23.50;100.00
5988;BME280;3021;51.000;6.980;2023-05-03T05:34:08;69078.88;;;24.80;100.00
5988;BME280;3021;51.000;6.980;2023-05-03T05:36:34;69154.41;;;25.49;96.70
5988;BME280;3021;51.000;6.980;2023-05-03T05:38:59;69247.28;;;26.29;93.30
5988;BME280;3021;51.000;6.980;2023-05-03T05:41:24;69271.25;;;26.50;90.75
5988;BME280;3021;51.000;6.980;2023-05-03T05:43:50;69298.19;;;26.73;87.80
5988;BME280;3021;51.000;6.980;2023-05-03T05:46:15;69300.53;;;26.76;87.51
5988;BME280;3021;51.000;6.980;2023-05-03T05:48:41;69294.09;;;26.70;85.19
5988;BME280;3021;51.000;6.980;2023-05-03T05:51:06;69348.50;;;27.18;82.74
5988;BME280;3021;51.000;6.980;2023-05-03T05:53:32;69075.97;;;24.78;81.88
5988;BME280;3021;51.000;6.980;2023-05-03T05:55:57;68902.38;;;23.22;87.46
5988;BME280;3021;51.000;6.980;2023-05-03T05:58:23;68936.34;;;23.55;86.37
5988;BME280;3021;51.000;6.980;2023-05-03T06:00:48;68971.94;;;23.86;86.52
5988;BME280;3021;51.000;6.980;2023-05-03T06:03:14;68849.25;;;22.75;85.36
5988;BME280;3021;51.000;6.980;2023-05-03T06:05:40;68792.19;;;22.27;87.71
5988;BME280;3021;51.000;6.980;2023-05-03T06:08:05;68901.78;;;23.22;86.11
5988;BME280;3021;51.000;6.980;2023-05-03T06:10:31;68903.06;;;23.25;85.30
5988;BME280;3021;51.000;6.980;2023-05-03T06:12:56;68876.22;;;23.02;88.41
5988;BME280;3021;51.000;6.980;2023-05-03T06:15:21;69023.38;;;24.31;88.00
5988;BME280;3021;51.000;6.980;2023-05-03T06:17:47;69281.19;;;26.59;82.93
5988;BME280;3021;51.000;6.980;2023-05-03T06:20:12;69469.72;;;28.24;80.16
5988;BME280;3021;51.000;6.980;2023-05-03T06:22:38;69688.47;;;30.19;76.69
5988;BME280;3021;51.000;6.980;2023-05-03T06:25:04;69869.84;;;31.78;72.45
5988;BME280;3021;51.000;6.980;2023-05-03T06:27:29;69871.47;;;31.77;68.55
5988;BME280;3021;51.000;6.980;2023-05-03T06:29:55;69669.72;;;30.03;70.70
5988;BME280;3021;51.000;6.980;2023-05-03T06:32:20;69599.25;;;29.38;69.21
5988;BME280;3021;51.000;6.980;2023-05-03T06:34:47;69517.88;;;28.69;71.21
5988;BME280;3021;51.000;6.980;2023-05-03T06:37:12;69482.63;;;28.36;70.43
5988;BME280;3021;51.000;6.980;2023-05-03T06:39:42;69615.06;;;29.52;69.37
5988;BME280;3021;51.000;6.980;2023-05-03T06:42:07;69623.88;;;29.60;67.29
5988;BME280;3021;51.000;6.980;2023-05-03T06:44:33;69745.28;;;30.66;69.16
5988;BME280;3021;51.000;6.980;2023-05-03T06:46:58;69643.22;;;29.77;65.88
5988;BME280;3021;51.000;6.980;2023-05-03T06:49:23;69277.69;;;26.55;70.36
5988;BME280;3021;51.000;6.980;2023-05-03T06:51:49;69015.66;;;24.22;74.93
5988;BME280;3021;51.000;6.980;2023-05-03T06:54:14;68835.94;;;22.66;78.77
5988;BME280;3021;51.000;6.980;2023-05-03T06:56:40;68687.69;;;21.33;81.71
5988;BME280;3021;51.000;6.980;2023-05-03T06:59:05;68569.97;;;20.29;83.50
5988;BME280;3021;51.000;6.980;2023-05-03T07:01:32;68626.84;;;20.74;87.80
5988;BME280;3021;51.000;6.980;2023-05-03T07:03:58;68695.28;;;21.39;86.11
5988;BME280;3021;51.000;6.980;2023-05-03T07:06:23;68552.50;;;20.13;84.19
5988;BME280;3021;51.000;6.980;2023-05-03T07:08:49;68374.84;;;18.54;90.62
5988;BME280;3021;51.000;6.980;2023-05-03T07:11:15;68270.88;;;17.64;96.15
5988;BME280;3021;51.000;6.980;2023-05-03T07:13:41;68134.22;;;16.40;100.00
5988;BME280;3021;51.000;6.980;2023-05-03T07:16:06;68049.31;;;15.63;100.00
5988;BME280;3021;51.000;6.980;2023-05-03T07:18:31;68023.34;;;15.42;100.00
5988;BME280;3021;51.000;6.980;2023-05-03T07:20:57;68031.91;;;15.47;100.00
5988;BME280;3021;51.000;6.980;2023-05-03T07:23:22;67999.41;;;15.18;100.00
5988;BME280;3021;51.000;6.980;2023-05-03T07:25:48;67974.03;;;14.98;100.00
5988;BME280;3021;51.000;6.980;2023-05-03T07:28:15;67952.00;;;14.79;100.00
5988;BME280;3021;51.000;6.980;2023-05-03T07:30:40;67979.25;;;15.03;100.00
5988;BME280;3021;51.000;6.980;2023-05-03T07:33:06;67996.50;;;15.16;100.00
5988;BME280;3021;51.000;6.980;2023-05-03T07:35:32;67965.19;;;14.88;100.00
5988;BME280;3021;51.000;6.980;2023-05-03T07:37:57;67917.63;;;14.46;100.00
5988;BME280;3021;51.000;6.980;2023-05-03T07:40:22;67851.69;;;13.90;100.00
5988;BME280;3021;51.000;6.980;2023-05-03T07:42:48;67841.28;;;13.80;100.00
5988;BME280;3021;51.000;6.980;2023-05-03T07:45:13;67822.16;;;13.63;100.00
5988;BME280;3021;51.000;6.980;2023-05-03T07:47:38;67866.19;;;14.03;100.00
5988;BME280;3021;51.000;6.980;2023-05-03T07:50:06;67909.78;;;14.44;100.00
5988;BME280;3021;51.000;6.980;2023-05-03T07:52:38;67983.31;;;15.07;100.00
5988;BME280;3021;51.000;6.980;2023-05-03T07:55:05;68066.31;;;15.80;100.00
5988;BME280;3021;51.000;6.980;2023-05-03T07:57:31;68133.06;;;16.39;100.00
5988;BME280;3021;51.000;6.980;2023-05-03T07:59:56;68047.72;;;15.64;100.00
5988;BME280;3021;51.000;6.980;2023-05-03T08:02:21;67946.22;;;14.74;100.00
5988;BME280;3021;51.000;6.980;2023-05-03T08:04:46;67993.03;;;15.13;100.00
5988;BME280;3021;51.000;6.980;2023-05-03T08:07:12;68024.38;;;15.41;100.00
5988;BME280;3021;51.000;6.980;2023-05-03T08:09:38;67976.94;;;15.01;100.00
5988;BME280;3021;51.000;6.980;2023-05-03T08:12:03;68042.94;;;15.57;100.00
5988;BME280;3021;51.000;6.980;2023-05-03T08:14:29;68073.41;;;15.89;100.00
5988;BME280;3021;51.000;6.980;2023-05-03T08:16:54;68123.19;;;16.31;100.00
5988;BME280;3021;51.000;6.980;2023-05-03T08:19:20;68190.59;;;16.90;100.00
5988;BME280;3021;51.000;6.980;2023-05-03T08:21:45;68201.75;;;17.03;100.00
5988;BME280;3021;51.000;6.980;2023-05-03T08:24:13;68271.91;;;17.62;100.00
5988;BME280;3021;51.000;6.980;2023-05-03T08:26:39;68455.97;;;19.30;100.00
5988;BME280;3021;51.000;6.980;2023-05-03T08:29:05;68659.84;;;21.11;95.50
5988;BME280;3021;51.000;6.980;2023-05-03T08:31:31;68549.16;;;20.13;93.64
5988;BME280;3021;51.000;6.980;2023-05-03T08:33:56;68408.13;;;18.86;96.43
5988;BME280;3021;51.000;6.980;2023-05-03T08:36:22;68284.56;;;17.71;97.37
5988;BME280;3021;51.000;6.980;2023-05-03T08:38:48;68404.50;;;18.80;100.00
5988;BME280;3021;51.000;6.980;2023-05-03T08:41:21;68837.47;;;22.63;91.81
5988;BME280;3021;51.000;6.980;2023-05-03T08:43:53;69380.13;;;27.46;82.97
5988;BME280;3021;51.000;6.980;2023-05-03T08:46:19;69637.44;;;29.74;74.87
5988;BME280;3021;51.000;6.980;2023-05-03T08:48:49;69900.34;;;32.05;69.59
5988;BME280;3021;51.000;6.980;2023-05-03T08:51:16;70361.84;;;36.07;61.30
5988;BME280;3021;51.000;6.980;2023-05-03T08:53:42;70522.03;;;37.47;52.58
5988;BME280;3021;51.000;6.980;2023-05-03T08:56:09;70625.88;;;38.40;49.30
5988;BME280;3021;51.000;6.980;2023-05-03T08:58:35;70519.88;;;37.50;50.52
5988;BME280;3021;51.000;6.980;2023-05-03T09:01:08;69780.97;;;30.95;52.57
5988;BME280;3021;51.000;6.980;2023-05-03T09:03:34;69277.09;;;26.55;57.83
5988;BME280;3021;51.000;6.980;2023-05-03T09:06:00;69092.78;;;24.90;64.07
5988;BME280;3021;51.000;6.980;2023-05-03T09:08:27;69143.06;;;25.34;64.53
5988;BME280;3021;51.000;6.980;2023-05-03T09:10:52;69234.28;;;26.15;63.50
5988;BME280;3021;51.000;6.980;2023-05-03T09:13:18;69475.09;;;28.32;61.17
5988;BME280;3021;51.000;6.980;2023-05-03T09:15:52;69193.34;;;25.79;64.45
5988;BME280;3021;51.000;6.980;2023-05-03T09:18:19;69391.25;;;27.55;66.54
5988;BME280;3021;51.000;6.980;2023-05-03T09:20:46;69503.13;;;28.54;61.84
5988;BME280;3021;51.000;6.980;2023-05-03T09:23:18;69559.47;;;29.06;60.30
5988;BME280;3021;51.000;6.980;2023-05-03T09:25:49;69711.84;;;30.37;58.07
5988;BME280;3021;51.000;6.980;2023-05-03T09:28:18;70108.94;;;33.88;54.67
5988;BME280;3021;51.000;6.980;2023-05-03T09:30:45;70315.44;;;35.69;51.90
5988;BME280;3021;51.000;6.980;2023-05-03T09:33:11;70538.69;;;37.66;49.53
5988;BME280;3021;51.000;6.980;2023-05-03T09:35:37;70677.22;;;38.87;45.15
5988;BME280;3021;51.000;6.980;2023-05-03T09:38:03;70532.72;;;37.59;45.29
5988;BME280;3021;51.000;6.980;2023-05-03T09:40:28;70392.56;;;36.36;46.37
5988;BME280;3021;51.000;6.980;2023-05-03T09:43:10;70426.69;;;36.66;45.12
5988;BME280;3021;51.000;6.980;2023-05-03T09:45:37;70523.81;;;37.48;44.76
5988;BME280;3021;51.000;6.980;2023-05-03T09:48:04;70631.16;;;38.45;44.49
5988;BME280;3021;51.000;6.980;2023-05-03T09:50:34;70462.53;;;36.95;43.93
5988;BME280;3021;51.000;6.980;2023-05-03T09:53:02;70528.03;;;37.55;44.54
5988;BME280;3021;51.000;6.980;2023-05-03T09:55:31;70721.38;;;39.23;45.11
5988;BME280;3021;51.000;6.980;2023-05-03T09:57:56;70575.09;;;37.93;43.41
5988;BME280;3021;51.000;6.980;2023-05-03T10:00:23;70421.91;;;36.59;43.32
5988;BME280;3021;51.000;6.980;2023-05-03T10:02:49;70057.22;;;33.42;45.18
5988;BME280;3021;51.000;6.980;2023-05-03T10:05:20;70049.50;;;33.33;45.85
5988;BME280;3021;51.000;6.980;2023-05-03T10:07:48;70261.78;;;35.19;46.61
5988;BME280;3021;51.000;6.980;2023-05-03T10:10:14;70396.59;;;36.37;43.77
5988;BME280;3021;51.000;6.980;2023-05-03T10:12:41;70385.38;;;36.27;44.54
5988;BME280;3021;51.000;6.980;2023-05-03T10:15:09;70455.63;;;36.94;44.24
5988;BME280;3021;51.000;6.980;2023-05-03T10:17:38;70599.25;;;38.14;44.79
5988;BME280;3021;51.000;6.980;2023-05-03T10:23:20;70381.94;;;36.27;44.18
5988;BME280;3021;51.000;6.980;2023-05-03T10:26:18;69945.09;;;32.47;44.97
5988;BME280;3021;51.000;6.980;2023-05-03T10:28:44;69476.66;;;28.28;49.37
5988;BME280;3021;51.000;6.980;2023-05-03T10:34:24;69739.31;;;30.59;49.47
5988;BME280;3021;51.000;6.980;2023-05-03T10:36:51;69837.91;;;31.45;48.73
5988;BME280;3021;51.000;6.980;2023-05-03T10:39:20;70007.75;;;32.97;46.54
5988;BME280;3021;51.000;6.980;2023-05-03T10:42:02;70100.63;;;33.78;45.36
5988;BME280;3021;51.000;6.980;2023-05-03T10:44:34;70179.50;;;34.50;45.50
5988;BME280;3021;51.000;6.980;2023-05-03T10:47:14;70393.75;;;36.37;44.15
5988;BME280;3021;51.000;6.980;2023-05-03T10:49:40;70393.13;;;36.37;42.71
5988;BME280;3021;51.000;6.980;2023-05-03T10:52:44;70223.47;;;34.83;42.86
5988;BME280;3021;51.000;6.980;2023-05-03T10:55:16;70237.59;;;34.95;43.59
5988;BME280;3021;51.000;6.980;2023-05-03T10:57:44;69909.53;;;32.08;45.17
5988;BME280;3021;51.000;6.980;2023-05-03T11:00:21;69884.41;;;31.88;45.90
5988;BME280;3021;51.000;6.980;2023-05-03T11:05:35;69624.94;;;29.58;50.01
5988;BME280;3021;51.000;6.980;2023-05-03T11:08:11;69409.41;;;27.71;54.01
5988;BME280;3021;51.000;6.980;2023-05-03T11:10:37;69169.28;;;25.55;55.24
5988;BME280;3021;51.000;6.980;2023-05-03T11:13:03;68980.50;;;23.89;58.62
5988;BME280;3021;51.000;6.980;2023-05-03T11:15:29;68791.34;;;22.22;61.39
5988;BME280;3021;51.000;6.980;2023-05-03T11:17:55;68594.91;;;20.48;62.69
5988;BME280;3021;51.000;6.980;2023-05-03T11:20:20;68437.00;;;19.06;67.36
5988;BME280;3021;51.000;6.980;2023-05-03T11:22:46;68412.09;;;18.87;72.03
5988;BME280;3021;51.000;6.980;2023-05-03T11:25:12;68452.81;;;19.23;84.44
5988;BME280;3021;51.000;6.980;2023-05-03T11:27:40;68450.94;;;19.19;78.75
5988;BME280;3021;51.000;6.980;2023-05-03T11:30:07;68363.22;;;18.43;82.67
5988;BME280;3021;51.000;6.980;2023-05-03T11:32:33;68374.84;;;18.54;81.23
5988;BME280;3021;51.000;6.980;2023-05-03T11:35:00;68355.66;;;18.37;80.83
5988;BME280;3021;51.000;6.980;2023-05-03T11:37:27;68325.41;;;18.10;83.25
5988;BME280;3021;51.000;6.980;2023-05-03T11:39:53;68345.78;;;18.28;79.53
5988;BME280;3021;51.000;6.980;2023-05-03T11:42:18;68376.00;;;18.55;77.63
5988;BME280;3021;51.000;6.980;2023-05-03T11:44:43;68375.00;;;18.56;74.86
5988;BME280;3021;51.000;6.980;2023-05-03T11:47:12;68336.34;;;18.17;75.88
5988;BME280;3021;51.000;6.980;2023-05-03T11:49:37;68280.78;;;17.73;81.44
5988;BME280;3021;51.000;6.980;2023-05-03T11:52:02;68319.63;;;18.05;81.29
5988;BME280;3021;51.000;6.980;2023-05-03T11:54:28;68311.47;;;17.98;80.75
5988;BME280;3021;51.000;6.980;2023-05-03T11:56:55;68322.50;;;18.07;81.85
5988;BME280;3021;51.000;6.980;2023-05-03T11:59:36;68289.94;;;17.78;82.90
5988;BME280;3021;51.000;6.980;2023-05-03T12:02:02;68309.72;;;17.96;86.37
5988;BME280;3021;51.000;6.980;2023-05-03T12:04:29;68313.66;;;17.97;82.23
5988;BME280;3021;51.000;6.980;2023-05-03T12:06:55;68312.06;;;17.98;82.88
5988;BME280;3021;51.000;6.980;2023-05-03T12:09:20;68335.31;;;18.19;83.84
5988;BME280;3021;51.000;6.980;2023-05-03T12:11:48;68350.88;;;18.30;85.29
5988;BME280;3021;51.000;6.980;2023-05-03T12:14:13;68350.44;;;18.32;83.31
5988;BME280;3021;51.000;6.980;2023-05-03T12:16:50;68336.47;;;18.20;81.95
5988;BME280;3021;51.000;6.980;2023-05-03T12:21:48;68312.06;;;17.98;83.73
5988;BME280;3021;51.000;6.980;2023-05-03T12:24:13;68332.84;;;18.14;83.19
5988;BME280;3021;51.000;6.980;2023-05-03T12:26:43;68334.72;;;18.18;81.49
5988;BME280;3021;51.000;6.980;2023-05-03T12:29:08;68330.06;;;18.14;84.41
5988;BME280;3021;51.000;6.980;2023-05-03T12:31:36;68326.00;;;18.10;80.59
5988;BME280;3021;51.000;6.980;2023-05-03T12:34:01;68323.69;;;18.08;83.21
5988;BME280;3021;51.000;6.980;2023-05-03T12:36:31;68323.81;;;18.11;81.38
5988;BME280;3021;51.000;6.980;2023-05-03T12:38:58;68339.38;;;18.22;83.03
5988;BME280;3021;51.000;6.980;2023-05-03T12:41:23;68320.19;;;18.05;82.47
5988;BME280;3021;51.000;6.980;2023-05-03T12:43:52;68303.31;;;17.90;83.74
5988;BME280;3021;51.000;6.980;2023-05-03T12:46:18;68310.31;;;17.96;83.46
5988;BME280;3021;51.000;6.980;2023-05-03T12:48:43;68260.88;;;17.53;82.77
5988;BME280;3021;51.000;6.980;2023-05-03T12:51:09;68262.63;;;17.54;81.70
5988;BME280;3021;51.000;6.980;2023-05-03T12:53:34;68245.78;;;17.39;82.40
5988;BME280;3021;51.000;6.980;2023-05-03T12:55:59;68280.78;;;17.73;83.71
5988;BME280;3021;51.000;6.980;2023-05-03T12:58:25;68303.19;;;17.88;82.58
5988;BME280;3021;51.000;6.980;2023-05-03T13:00:51;68318.44;;;18.04;83.96
5988;BME280;3021;51.000;6.980;2023-05-03T13:03:16;68345.06;;;18.25;85.58
5988;BME280;3021;51.000;6.980;2023-05-03T13:05:42;68362.63;;;18.43;83.22
5988;BME280;3021;51.000;6.980;2023-05-03T13:08:08;68358.13;;;18.41;83.49
5988;BME280;3021;51.000;6.980;2023-05-03T13:10:35;68349.41;;;18.34;84.29
5988;BME280;3021;51.000;6.980;2023-05-03T13:13:01;68327.88;;;18.14;86.11
5988;BME280;3021;51.000;6.980;2023-05-03T13:15:26;68350.28;;;18.29;86.02
5988;BME280;3021;51.000;6.980;2023-05-03T13:17:52;68365.09;;;18.47;85.96
5988;BME280;3021;51.000;6.980;2023-05-03T13:20:18;68359.72;;;18.40;82.76
5988;BME280;3021;51.000;6.980;2023-05-03T13:22:45;68348.69;;;18.30;83.05
5988;BME280;3021;51.000;6.980;2023-05-03T13:25:11;68349.25;;;18.31;84.00
5988;BME280;3021;51.000;6.980;2023-05-03T13:27:37;68356.22;;;18.37;83.47
5988;BME280;3021;51.000;6.980;2023-05-03T13:30:02;68366.72;;;18.46;82.62
5988;BME280;3021;51.000;6.980;2023-05-03T13:32:30;68351.72;;;18.36;85.36
5988;BME280;3021;51.000;6.980;2023-05-03T13:34:57;68364.38;;;18.44;86.83
5988;BME280;3021;51.000;6.980;2023-05-03T13:37:22;68377.88;;;18.59;85.29
5988;BME280;3021;51.000;6.980;2023-05-03T13:39:47;68394.06;;;18.71;86.78
5988;BME280;3021;51.000;6.980;2023-05-03T13:42:13;68408.00;;;18.83;82.88